Time;durP1;ratioP1;P1;durP2;ratioP2;P2;SDS_P1;SDS_P2;PMS_P1;PMS_P2;Temp;Humidity;BMP_temperature;BMP_pressure;BME280_temperature;BME280_humidity;BME280_pressure;Samples;Min_cycle;Max_cycle;Signal;HPM_P1;HPM_P2
2022/12/31 00:04:41;;;;;;;35.60;20.20;;;;;;;3.87;81.23;99616.80;208067;1288;139324;-64
2022/12/31 00:09:44;;;;;;;31.50;19.20;;;;;;;3.90;81.28;99603.45;207679;1297;139621;-61
2022/12/31 00:14:48;;;;;;;31.10;18.00;;;;;;;3.98;81.37;99594.52;209067;1288;140644;-64
2022/12/31 00:19:52;;;;;;;29.80;18.90;;;;;;;4.02;81.51;99587.52;208101;1289;205771;-69
2022/12/31 00:24:54;;;;;;;26.00;16.10;;;;;;;4.08;81.31;99592.02;209062;1288;140569;-63
2022/12/31 00:29:58;;;;;;;27.70;16.80;;;;;;;4.13;81.37;99594.48;208373;1294;141230;-67
2022/12/31 00:35:07;;;;;;;28.90;14.60;;;;;;;4.20;81.63;99578.32;208529;1287;139531;-65
2022/12/31 00:40:11;;;;;;;32.00;17.20;;;;;;;4.30;81.33;99572.58;210260;1292;140173;-64
2022/12/31 00:45:14;;;;;;;30.60;18.50;;;;;;;4.37;81.35;99576.42;210362;1294;140959;-65
2022/12/31 00:50:17;;;;;;;35.80;19.40;;;;;;;4.44;81.30;99569.74;210546;1294;140678;-63
2022/12/31 00:55:20;;;;;;;32.90;16.80;;;;;;;4.52;81.25;99567.26;210297;1285;141609;-64
2022/12/31 01:00:23;;;;;;;33.60;18.80;;;;;;;4.59;81.17;99562.98;209615;1291;141755;-66
2022/12/31 01:05:27;;;;;;;38.40;23.30;;;;;;;4.63;81.17;99557.71;209708;1289;140127;-64
2022/12/31 01:15:54;;;;;;;31.40;18.60;;;;;;;4.74;80.96;99559.94;208945;1295;219506;-64
2022/12/31 01:21:02;;;;;;;22.50;16.60;;;;;;;4.75;80.81;99560.06;208126;1285;142366;-64
2022/12/31 01:26:08;;;;;;;38.70;20.10;;;;;;;4.78;81.10;99557.34;209376;1293;140120;-64
2022/12/31 01:31:14;;;;;;;31.50;18.80;;;;;;;4.81;80.66;99551.66;208608;1286;141212;-66
2022/12/31 01:36:24;;;;;;;28.60;17.50;;;;;;;4.81;80.82;99553.61;208371;1298;140089;-62
2022/12/31 01:41:33;;;;;;;38.30;20.70;;;;;;;4.80;80.60;99547.77;208182;1294;140574;-63
2022/12/31 01:46:56;;;;;;;34.90;21.10;;;;;;;4.81;80.81;99538.70;207640;1284;140500;-66
2022/12/31 01:52:11;;;;;;;28.80;19.00;;;;;;;4.81;80.90;99533.42;208473;1301;139646;-66
2022/12/31 01:57:16;;;;;;;26.40;17.90;;;;;;;4.81;80.58;99529.98;208736;1284;139673;-64
2022/12/31 02:02:19;;;;;;;29.30;18.70;;;;;;;4.84;80.25;99517.99;208440;1290;140017;-64
2022/12/31 02:07:26;;;;;;;23.80;16.10;;;;;;;4.84;80.48;99526.60;208723;1288;141220;-66
2022/12/31 02:12:30;;;;;;;35.50;20.00;;;;;;;4.85;80.53;99540.45;208591;1294;140018;-64
2022/12/31 02:18:10;;;;;;;35.30;19.90;;;;;;;4.91;80.61;99550.48;209176;1290;141013;-67
2022/12/31 02:23:39;;;;;;;28.60;19.10;;;;;;;5.00;81.11;99548.01;207870;1299;221193;-66
2022/12/31 02:28:56;;;;;;;39.40;19.90;;;;;;;5.04;80.68;99518.46;209322;1285;140304;-64
2022/12/31 02:34:06;;;;;;;30.60;17.60;;;;;;;5.12;80.84;99513.17;209100;1285;141280;-64
2022/12/31 02:39:11;;;;;;;29.00;16.90;;;;;;;5.24;80.70;99519.86;210023;1301;142489;-64
2022/12/31 02:44:24;;;;;;;34.40;14.50;;;;;;;5.34;80.76;99522.33;209925;1301;140244;-64
2022/12/31 02:49:28;;;;;;;25.30;15.00;;;;;;;5.41;80.58;99514.97;210081;1293;140014;-63
2022/12/31 02:55:08;;;;;;;22.00;13.40;;;;;;;5.49;80.59;99514.05;210672;1295;140653;-63
2022/12/31 03:05:41;;;;;;;25.50;14.80;;;;;;;5.66;80.59;99527.30;209498;1298;140429;-64
2022/12/31 03:10:45;;;;;;;27.50;14.50;;;;;;;5.74;80.38;99538.77;210072;1293;140257;-66
2022/12/31 03:15:48;;;;;;;19.70;13.70;;;;;;;5.85;80.17;99547.06;208685;1300;801131;-65
2022/12/31 03:26:13;;;;;;;22.40;13.10;;;;;;;5.96;80.34;99559.23;208380;1295;139501;-66
2022/12/31 03:31:16;;;;;;;19.10;13.00;;;;;;;5.99;80.48;99555.96;207986;1281;141987;-63
2022/12/31 03:36:21;;;;;;;21.50;11.70;;;;;;;6.02;80.11;99555.14;208643;1284;141003;-63
2022/12/31 03:41:24;;;;;;;15.80;9.70;;;;;;;6.02;80.11;99553.11;208055;1284;140372;-65
2022/12/31 03:46:26;;;;;;;18.80;11.50;;;;;;;6.04;80.00;99555.63;207681;1284;140206;-65
2022/12/31 03:51:28;;;;;;;19.30;12.40;;;;;;;6.10;80.57;99559.02;208840;1284;140957;-65
2022/12/31 03:56:31;;;;;;;14.70;9.90;;;;;;;6.15;80.75;99562.31;208988;1286;140318;-66
2022/12/31 04:01:36;;;;;;;15.20;10.10;;;;;;;6.18;80.59;99578.23;207943;1284;140881;-65
2022/12/31 04:06:40;;;;;;;14.90;11.00;;;;;;;6.23;80.57;99576.58;208291;1293;141489;-64
2022/12/31 04:11:43;;;;;;;13.40;9.40;;;;;;;6.27;80.62;99577.34;207884;1294;141604;-66
2022/12/31 04:16:47;;;;;;;18.80;10.80;;;;;;;6.35;80.68;99571.69;207946;1295;144225;-66
2022/12/31 04:21:50;;;;;;;11.40;8.10;;;;;;;6.40;80.76;99566.58;208500;1295;160376;-67
2022/12/31 04:26:53;;;;;;;10.40;7.80;;;;;;;6.43;80.96;99574.23;207913;1288;140829;-66
2022/12/31 04:31:57;;;;;;;11.80;8.70;;;;;;;6.46;81.11;99580.45;209107;1294;141396;-66
2022/12/31 04:37:01;;;;;;;17.30;9.30;;;;;;;6.50;81.01;99580.11;210313;1301;140382;-67
2022/12/31 04:42:05;;;;;;;14.10;8.80;;;;;;;6.55;81.28;99585.35;210402;1295;141134;-67
2022/12/31 04:47:09;;;;;;;14.60;10.70;;;;;;;6.61;81.21;99582.95;210559;1289;140189;-67
2022/12/31 04:52:12;;;;;;;11.20;8.50;;;;;;;6.66;80.97;99585.17;210503;1293;140357;-67
2022/12/31 04:57:17;;;;;;;12.20;8.10;;;;;;;6.76;80.81;99578.21;210052;1295;140722;-67
2022/12/31 05:02:20;;;;;;;9.90;7.30;;;;;;;6.83;81.02;99565.53;208216;1284;140188;-65
2022/12/31 05:07:24;;;;;;;11.30;7.70;;;;;;;6.87;81.12;99569.27;209196;1294;150810;-67
2022/12/31 05:12:27;;;;;;;12.70;8.50;;;;;;;6.89;81.10;99576.75;208155;1292;139973;-66
2022/12/31 05:17:31;;;;;;;11.50;8.30;;;;;;;6.92;81.00;99569.92;209082;1297;139849;-66
2022/12/31 05:22:36;;;;;;;8.80;7.20;;;;;;;6.95;81.10;99560.93;208483;1294;141635;-67
2022/12/31 05:27:39;;;;;;;11.40;7.10;;;;;;;6.97;81.04;99574.13;207949;1292;141196;-64
2022/12/31 05:32:41;;;;;;;8.40;6.80;;;;;;;7.00;80.91;99585.56;208249;1293;140359;-66
2022/12/31 05:37:44;;;;;;;10.60;7.50;;;;;;;7.04;81.32;99586.62;207619;1284;141480;-64
2022/12/31 05:42:49;;;;;;;8.10;5.30;;;;;;;7.07;80.89;99586.83;207852;1295;140374;-64
2022/12/31 05:47:52;;;;;;;10.00;6.50;;;;;;;7.08;81.11;99578.52;207616;1285;139520;-64
2022/12/31 05:52:58;;;;;;;13.50;6.20;;;;;;;7.10;80.98;99585.92;208018;1301;141513;-64
2022/12/31 05:58:01;;;;;;;9.60;6.80;;;;;;;7.15;81.36;99588.09;207816;1284;140215;-64
2022/12/31 06:03:05;;;;;;;9.90;7.30;;;;;;;7.17;80.91;99593.05;208145;1294;140297;-66
2022/12/31 06:08:10;;;;;;;9.60;6.00;;;;;;;7.20;81.03;99597.30;208677;1291;139948;-63
2022/12/31 06:13:16;;;;;;;9.40;7.30;;;;;;;7.23;80.94;99605.86;208489;1289;139648;-64
2022/12/31 06:18:19;;;;;;;7.90;5.90;;;;;;;7.25;80.95;99612.29;208355;1295;140118;-68
2022/12/31 06:23:22;;;;;;;7.30;4.90;;;;;;;7.29;80.62;99609.04;208704;1294;139848;-64
2022/12/31 06:28:25;;;;;;;8.10;5.10;;;;;;;7.30;80.65;99606.54;209718;1278;139244;-63
2022/12/31 06:33:28;;;;;;;5.90;4.70;;;;;;;7.29;80.65;99602.76;209494;1291;141184;-64
2022/12/31 06:38:35;;;;;;;8.50;5.40;;;;;;;7.23;80.43;99597.86;210614;1299;140312;-65
2022/12/31 06:43:40;;;;;;;8.10;5.50;;;;;;;7.19;80.44;99591.41;208839;1293;140884;-65
2022/12/31 06:48:44;;;;;;;6.80;5.60;;;;;;;7.20;80.61;99593.52;210298;1282;235584;-66
2022/12/31 06:53:48;;;;;;;8.60;4.90;;;;;;;7.19;80.50;99606.73;208730;1294;141296;-68
2022/12/31 06:58:52;;;;;;;8.80;5.50;;;;;;;7.21;80.70;99616.73;210090;1284;141139;-65
2022/12/31 07:04:20;;;;;;;6.60;5.20;;;;;;;7.25;80.71;99611.75;210707;1294;140674;-68
2022/12/31 07:09:31;;;;;;;7.00;4.50;;;;;;;7.30;80.91;99614.21;210441;1293;140783;-67
2022/12/31 07:15:01;;;;;;;6.30;4.70;;;;;;;7.37;80.59;99620.66;210626;1293;140244;-67
2022/12/31 07:20:17;;;;;;;5.50;4.40;;;;;;;7.40;80.57;99614.72;210334;1297;139297;-68
2022/12/31 07:25:22;;;;;;;6.80;4.50;;;;;;;7.45;80.37;99614.52;210453;1297;141460;-68
2022/12/31 07:30:43;;;;;;;7.40;4.50;;;;;;;7.52;80.24;99620.52;209619;1292;151435;-67
2022/12/31 07:36:17;;;;;;;6.60;4.30;;;;;;;7.53;80.28;99637.91;208114;1295;140363;-64
2022/12/31 07:41:39;;;;;;;5.70;4.40;;;;;;;7.53;80.55;99661.39;208722;1294;139634;-66
2022/12/31 07:47:04;;;;;;;7.90;4.00;;;;;;;7.58;80.93;99656.16;209064;1294;140137;-64
2022/12/31 07:52:07;;;;;;;6.80;4.60;;;;;;;7.68;80.91;99650.71;208471;1294;141194;-63
2022/12/31 07:57:16;;;;;;;5.00;4.10;;;;;;;7.76;80.89;99652.27;208429;1294;141146;-67
2022/12/31 08:02:40;;;;;;;4.40;3.90;;;;;;;7.83;80.82;99638.09;207837;1294;141907;-65
2022/12/31 08:08:22;;;;;;;6.50;4.50;;;;;;;7.90;80.75;99642.12;208629;1294;140969;-66
2022/12/31 08:13:30;;;;;;;4.70;4.30;;;;;;;7.94;80.72;99635.83;208943;1292;225319;-66
2022/12/31 08:18:34;;;;;;;4.80;3.70;;;;;;;8.02;80.48;99632.74;207855;1289;151102;-65
2022/12/31 08:23:55;;;;;;;4.70;3.80;;;;;;;8.11;80.33;99638.49;208656;1289;142545;-65
2022/12/31 08:29:25;;;;;;;5.40;4.90;;;;;;;8.20;80.58;99632.45;207743;1285;249609;-65
2022/12/31 08:34:44;;;;;;;6.20;5.10;;;;;;;8.30;80.31;99648.39;209695;1288;139484;-66
2022/12/31 08:39:48;;;;;;;6.00;4.80;;;;;;;8.35;80.43;99653.00;210631;1295;139098;-65
2022/12/31 08:45:12;;;;;;;7.90;4.30;;;;;;;8.43;80.33;99649.80;210497;1295;139848;-65
2022/12/31 08:50:18;;;;;;;8.30;4.20;;;;;;;8.57;80.10;99654.86;209646;1299;140405;-65
2022/12/31 08:55:21;;;;;;;4.20;3.40;;;;;;;8.71;80.06;99655.95;210561;1294;140671;-66
2022/12/31 09:00:26;;;;;;;5.20;3.30;;;;;;;8.85;79.87;99658.10;208821;1294;140142;-66
2022/12/31 09:05:57;;;;;;;5.60;3.90;;;;;;;8.97;79.85;99660.84;208550;1285;140200;-66
2022/12/31 09:11:12;;;;;;;3.00;2.70;;;;;;;9.06;79.86;99658.30;209169;1290;140559;-66
2022/12/31 09:16:47;;;;;;;3.90;2.60;;;;;;;9.19;79.60;99667.11;207920;1281;235805;-65
2022/12/31 09:21:52;;;;;;;5.10;3.40;;;;;;;9.26;79.53;99660.16;208498;1280;140050;-66
2022/12/31 09:27:20;;;;;;;4.60;4.00;;;;;;;9.28;79.47;99640.45;207778;1286;140470;-66
2022/12/31 09:32:33;;;;;;;6.10;3.80;;;;;;;9.32;79.46;99621.64;208354;1294;140898;-67
2022/12/31 09:37:55;;;;;;;5.00;4.20;;;;;;;9.42;79.66;99620.35;207541;1281;141063;-65
2022/12/31 09:43:36;;;;;;;3.00;2.50;;;;;;;9.60;79.84;99623.73;207900;1288;222912;-66
2022/12/31 09:49:12;;;;;;;5.00;2.40;;;;;;;9.94;79.95;99629.55;208496;1292;139379;-67
2022/12/31 09:54:31;;;;;;;2.40;2.00;;;;;;;10.27;79.62;99627.89;208756;1288;141394;-67
2022/12/31 09:59:41;;;;;;;5.20;3.20;;;;;;;10.39;79.22;99629.91;207302;1284;140375;-69
2022/12/31 10:04:58;;;;;;;3.40;2.30;;;;;;;10.49;79.05;99626.04;208744;1294;139973;-67
2022/12/31 10:10:12;;;;;;;3.60;2.90;;;;;;;10.57;78.70;99606.70;207785;1290;141433;-68
2022/12/31 10:15:37;;;;;;;9.30;3.00;;;;;;;10.58;78.67;99597.70;207543;1293;140449;-67
2022/12/31 10:21:10;;;;;;;3.00;2.30;;;;;;;10.60;78.65;99601.84;208349;1287;140693;-67
2022/12/31 10:26:25;;;;;;;3.40;3.00;;;;;;;10.67;78.81;99608.01;207555;1293;140370;-67
2022/12/31 10:31:37;;;;;;;3.20;2.00;;;;;;;10.59;78.59;99611.38;208778;1289;139315;-66
2022/12/31 10:36:55;;;;;;;7.50;2.70;;;;;;;10.51;78.82;99603.54;208574;1281;140595;-67
2022/12/31 10:42:20;;;;;;;;;;;;;;;10.50;78.87;99595.30;210539;1301;141142;-67
2022/12/31 10:48:18;;;;;;;4.20;3.10;;;;;;;10.40;79.38;99589.21;211088;1287;128329;-67
2022/12/31 10:53:42;;;;;;;2.80;2.50;;;;;;;10.35;79.72;99581.55;208803;1294;140029;-69
2022/12/31 10:58:54;;;;;;;3.50;3.00;;;;;;;10.24;79.65;99557.86;208487;1284;140797;-67
2022/12/31 11:04:48;;;;;;;67.70;39.30;;;;;;;10.18;80.11;99551.70;208274;1281;139961;-67
2022/12/31 11:10:26;;;;;;;23.10;19.50;;;;;;;10.15;80.30;99545.83;208663;1278;140773;-67
2022/12/31 11:15:46;;;;;;;14.80;10.00;;;;;;;10.19;80.41;99534.63;207162;1288;144010;-67
2022/12/31 11:21:17;;;;;;;17.10;14.40;;;;;;;10.31;80.58;99532.60;207634;1294;140179;-66
2022/12/31 11:26:45;;;;;;;25.50;23.10;;;;;;;10.43;80.61;99533.83;208379;1295;237528;-68
2022/12/31 11:31:53;;;;;;;6.10;5.50;;;;;;;10.46;80.66;99535.80;209872;1294;140332;-66
2022/12/31 11:37:15;;;;;;;6.10;3.60;;;;;;;10.56;80.52;99530.98;207351;1286;140199;-67
2022/12/31 11:42:28;;;;;;;3.70;3.50;;;;;;;10.69;80.51;99522.48;207529;1287;142322;-65
2022/12/31 11:47:48;;;;;;;5.00;3.60;;;;;;;10.71;80.27;99518.49;207528;1289;142863;-67
2022/12/31 11:53:38;;;;;;;2.90;2.60;;;;;;;10.82;80.19;99519.95;207284;1287;226139;-67
2022/12/31 11:58:46;;;;;;;3.60;2.40;;;;;;;10.93;79.90;99512.73;207814;1294;140524;-65
2022/12/31 12:03:51;;;;;;;4.40;3.10;;;;;;;10.99;80.18;99516.85;209120;1281;140807;-66
2022/12/31 12:08:58;;;;;;;4.10;3.20;;;;;;;11.10;80.14;99512.73;207383;1281;140103;-67
2022/12/31 12:14:37;;;;;;;3.50;3.20;;;;;;;11.34;79.88;99499.20;207785;1287;245784;-64
2022/12/31 12:19:46;;;;;;;3.80;2.80;;;;;;;11.51;79.61;99490.76;208491;1287;140054;-64
2022/12/31 12:25:02;;;;;;;5.10;3.20;;;;;;;11.59;79.34;99480.88;209108;1294;140477;-67
2022/12/31 12:30:11;;;;;;;4.10;3.40;;;;;;;11.68;79.29;99472.16;209256;1295;141647;-64
2022/12/31 12:35:15;;;;;;;4.70;3.60;;;;;;;11.72;79.04;99477.78;208866;1292;140192;-66
2022/12/31 12:40:23;;;;;;;4.50;3.30;;;;;;;11.83;78.99;99485.27;207596;1294;140008;-68
2022/12/31 12:45:42;;;;;;;3.90;3.30;;;;;;;11.90;78.69;99492.89;208665;1288;140343;-69
2022/12/31 12:50:51;;;;;;;4.50;3.20;;;;;;;11.92;79.19;99473.25;210465;1294;141643;-70
2022/12/31 12:56:17;;;;;;;4.50;2.60;;;;;;;11.96;78.82;99474.08;210016;1294;139649;-65
2022/12/31 13:01:33;;;;;;;7.10;4.10;;;;;;;12.00;78.51;99468.15;207586;1288;209086;-68
2022/12/31 13:07:16;;;;;;;4.20;2.20;;;;;;;11.98;78.54;99481.00;208279;1288;139591;-64
2022/12/31 13:12:53;;;;;;;3.70;2.20;;;;;;;11.93;78.60;99484.84;209469;1288;234891;-69
2022/12/31 13:18:34;;;;;;;4.90;2.80;;;;;;;11.97;78.86;99487.71;207299;1288;243629;-68
2022/12/31 13:23:52;;;;;;;5.10;2.80;;;;;;;11.98;78.95;99482.17;207581;1291;139792;-68
2022/12/31 13:28:57;;;;;;;4.80;3.40;;;;;;;11.99;78.76;99480.21;208472;1287;141092;-68
2022/12/31 13:34:10;;;;;;;5.50;2.90;;;;;;;12.03;78.78;99491.05;207650;1288;141182;-69
2022/12/31 13:39:26;;;;;;;4.90;2.40;;;;;;;12.04;79.17;99499.14;207535;1287;139785;-69
2022/12/31 13:44:37;;;;;;;4.20;2.40;;;;;;;12.08;79.01;99500.19;207566;1287;140138;-67
2022/12/31 13:49:54;;;;;;;4.90;2.80;;;;;;;12.10;79.02;99502.56;207203;1294;140661;-65
2022/12/31 13:55:50;;;;;;;4.80;3.20;;;;;;;12.10;79.13;99499.89;207683;1294;235190;-69
2022/12/31 14:01:42;;;;;;;3.60;2.30;;;;;;;12.13;79.18;99511.23;206950;1294;140115;-69
2022/12/31 14:06:53;;;;;;;3.10;2.90;;;;;;;12.19;78.87;99506.33;206584;1286;140858;-67
2022/12/31 14:12:33;;;;;;;3.70;2.50;;;;;;;12.20;79.00;99506.87;207673;1281;141751;-67
2022/12/31 14:17:35;;;;;;;3.70;2.10;;;;;;;12.20;78.96;99514.89;209254;1293;220833;-69
2022/12/31 14:23:12;;;;;;;5.20;3.20;;;;;;;12.24;78.94;99528.11;208255;1287;139525;-68
2022/12/31 14:28:24;;;;;;;6.20;3.40;;;;;;;12.26;78.87;99531.75;209818;1277;224809;-66
2022/12/31 14:33:53;;;;;;;3.10;2.70;;;;;;;12.28;78.88;99530.77;207505;1280;139287;-64
2022/12/31 14:39:05;;;;;;;5.30;2.90;;;;;;;12.32;78.55;99532.41;210042;1295;140601;-74
2022/12/31 14:44:23;;;;;;;3.70;2.80;;;;;;;12.28;78.38;99530.27;208158;1300;139966;-68
2022/12/31 14:49:55;;;;;;;4.20;2.90;;;;;;;12.21;78.43;99543.42;209746;1287;139709;-72
2022/12/31 14:55:16;;;;;;;4.60;2.80;;;;;;;12.17;78.22;99543.80;208432;1288;140012;-69
2022/12/31 15:00:30;;;;;;;2.90;2.60;;;;;;;12.11;78.46;99555.64;208232;1295;140608;-67
2022/12/31 15:05:36;;;;;;;54.70;37.70;;;;;;;12.06;78.32;99555.36;209050;1287;139816;-65
2022/12/31 15:11:16;;;;;;;40.90;24.70;;;;;;;12.03;78.45;99559.71;207560;1287;141169;-66
2022/12/31 15:16:25;;;;;;;5.80;4.20;;;;;;;11.98;78.48;99560.02;208790;1271;301799;-66
2022/12/31 15:22:01;;;;;;;5.30;4.80;;;;;;;11.94;78.73;99563.06;207460;1285;141027;-76
2022/12/31 15:27:20;;;;;;;4.10;3.60;;;;;;;11.93;78.77;99572.83;207671;1294;142292;-69
2022/12/31 15:32:42;;;;;;;4.10;3.60;;;;;;;11.90;78.85;99574.30;208125;1294;140703;-68
2022/12/31 15:37:44;;;;;;;8.50;3.60;;;;;;;11.90;79.14;99582.38;207660;1287;140761;-68
2022/12/31 15:42:54;;;;;;;5.00;4.60;;;;;;;11.95;79.23;99584.50;207739;1281;140345;-66
2022/12/31 15:48:00;;;;;;;4.00;3.30;;;;;;;11.96;79.16;99581.84;207576;1291;139803;-67
2022/12/31 15:53:06;;;;;;;4.10;3.40;;;;;;;11.97;79.03;99578.80;208476;1293;140538;-69
2022/12/31 15:58:15;;;;;;;6.60;4.00;;;;;;;12.00;78.94;99582.44;208439;1293;141508;-65
2022/12/31 16:03:22;;;;;;;6.80;2.80;;;;;;;12.00;79.04;99587.61;207629;1294;140039;-66
2022/12/31 16:08:29;;;;;;;7.60;3.00;;;;;;;12.02;79.21;99594.96;207484;1294;139565;-65
2022/12/31 16:13:35;;;;;;;3.50;2.80;;;;;;;12.05;79.15;99599.60;208229;1281;142572;-70
2022/12/31 16:18:40;;;;;;;4.00;2.70;;;;;;;12.04;79.43;99601.56;208251;1288;140512;-66
2022/12/31 16:23:50;;;;;;;5.50;2.40;;;;;;;12.07;79.30;99607.38;207519;1284;140459;-66
2022/12/31 16:28:58;;;;;;;5.40;2.80;;;;;;;12.15;79.38;99597.86;209487;1290;141811;-69
2022/12/31 16:34:10;;;;;;;5.70;2.90;;;;;;;12.21;79.41;99604.51;207817;1288;140010;-65
2022/12/31 16:39:34;;;;;;;2.70;2.20;;;;;;;12.27;79.56;99602.28;209488;1271;236175;-66
2022/12/31 16:44:36;;;;;;;2.50;2.30;;;;;;;12.39;79.26;99602.20;210403;1278;140609;-64
2022/12/31 16:49:41;;;;;;;6.80;3.30;;;;;;;12.45;79.30;99610.90;210379;1295;140417;-66
2022/12/31 16:54:46;;;;;;;4.40;2.50;;;;;;;12.55;79.20;99608.33;210421;1293;140736;-65
2022/12/31 16:59:54;;;;;;;4.20;3.80;;;;;;;12.67;78.86;99607.92;209642;1294;140359;-71
2022/12/31 17:04:56;;;;;;;5.00;3.60;;;;;;;12.70;78.87;99605.19;207370;1298;140447;-65
2022/12/31 17:10:21;;;;;;;6.80;3.40;;;;;;;12.73;78.74;99597.40;207398;1295;140134;-68
2022/12/31 17:15:28;;;;;;;5.30;3.30;;;;;;;12.78;78.73;99609.33;207441;1288;140756;-67
2022/12/31 17:20:32;;;;;;;4.70;3.10;;;;;;;12.79;78.73;99630.37;208690;1294;142563;-72
2022/12/31 17:25:37;;;;;;;5.90;2.80;;;;;;;12.78;78.61;99633.30;207180;1285;140750;-67
2022/12/31 17:30:39;;;;;;;6.40;3.60;;;;;;;12.80;78.55;99626.42;207247;1288;141074;-67
2022/12/31 17:35:44;;;;;;;4.80;3.30;;;;;;;12.79;78.59;99632.63;208116;1284;140119;-67
2022/12/31 17:41:07;;;;;;;5.40;3.30;;;;;;;12.79;78.58;99622.78;208424;1285;141045;-67
2022/12/31 17:46:15;;;;;;;8.30;4.10;;;;;;;12.83;78.30;99630.19;207374;1287;142373;-71
2022/12/31 17:51:19;;;;;;;8.00;4.00;;;;;;;12.84;78.35;99641.44;208260;1287;141722;-66
2022/12/31 17:56:27;;;;;;;6.40;3.30;;;;;;;12.77;78.02;99634.04;207954;1295;140333;-67
2022/12/31 18:01:31;;;;;;;4.70;3.60;;;;;;;12.68;78.01;99639.45;208379;1295;139718;-64
2022/12/31 18:06:36;;;;;;;7.40;4.20;;;;;;;12.62;78.21;99644.28;208523;1287;141200;-71
2022/12/31 18:11:40;;;;;;;7.00;4.40;;;;;;;12.59;78.25;99653.61;207826;1287;141046;-64
2022/12/31 18:16:42;;;;;;;6.50;4.10;;;;;;;12.50;78.09;99645.61;208399;1287;139634;-68
2022/12/31 18:21:45;;;;;;;7.00;3.60;;;;;;;12.44;78.23;99638.05;208706;1286;140495;-65
2022/12/31 18:26:48;;;;;;;9.20;4.50;;;;;;;12.42;78.15;99638.60;207962;1294;142096;-69
2022/12/31 18:31:50;;;;;;;5.20;3.50;;;;;;;12.39;78.43;99641.39;209928;1286;140158;-67
2022/12/31 18:36:52;;;;;;;6.80;4.40;;;;;;;12.37;78.51;99644.85;209798;1287;141242;-67
2022/12/31 18:41:54;;;;;;;5.90;3.00;;;;;;;12.41;78.62;99655.39;210338;1292;139890;-68
2022/12/31 18:46:58;;;;;;;4.70;3.60;;;;;;;12.43;78.30;99663.80;210580;1294;140297;-67
2022/12/31 18:52:00;;;;;;;5.30;3.60;;;;;;;12.43;78.44;99665.20;209339;1295;140667;-66
2022/12/31 18:57:04;;;;;;;5.20;4.00;;;;;;;12.49;78.26;99661.59;207359;1281;140456;-68
2022/12/31 19:02:14;;;;;;;4.20;3.40;;;;;;;12.52;78.41;99662.91;208875;1296;141666;-67
2022/12/31 19:07:17;;;;;;;7.50;4.10;;;;;;;12.50;78.46;99666.14;207366;1295;139425;-66
2022/12/31 19:12:20;;;;;;;5.00;3.30;;;;;;;12.51;78.19;99680.05;208252;1281;140032;-66
2022/12/31 19:17:22;;;;;;;9.10;4.30;;;;;;;12.52;78.11;99675.89;207866;1295;139790;-68
2022/12/31 19:22:24;;;;;;;10.60;3.50;;;;;;;12.48;78.32;99679.65;207419;1290;139367;-68
2022/12/31 19:27:27;;;;;;;8.00;5.40;;;;;;;12.49;78.17;99685.16;207374;1281;141745;-64
2022/12/31 19:32:30;;;;;;;6.70;3.80;;;;;;;12.49;78.19;99691.09;207412;1287;140331;-69
2022/12/31 19:37:32;;;;;;;7.50;3.30;;;;;;;12.44;78.17;99693.98;207358;1291;141309;-65
2022/12/31 19:42:36;;;;;;;7.40;4.60;;;;;;;12.40;78.30;99681.61;208577;1291;141030;-64
2022/12/31 19:47:38;;;;;;;4.70;3.80;;;;;;;12.39;78.11;99670.92;207722;1284;141403;-70
2022/12/31 19:52:40;;;;;;;6.30;4.00;;;;;;;12.36;78.35;99660.07;209334;1287;142671;-68
2022/12/31 19:57:44;;;;;;;5.10;3.70;;;;;;;12.35;78.33;99660.11;208650;1295;141692;-64
2022/12/31 20:02:47;;;;;;;5.10;3.50;;;;;;;12.36;78.41;99676.70;207983;1285;140319;-63
2022/12/31 20:07:50;;;;;;;6.70;4.10;;;;;;;12.41;78.45;99674.97;208542;1294;142000;-68
2022/12/31 20:12:52;;;;;;;5.60;4.00;;;;;;;12.42;78.63;99666.84;207498;1294;141195;-66
2022/12/31 20:17:56;;;;;;;6.10;4.00;;;;;;;12.44;78.25;99675.47;208783;1288;140080;-67
2022/12/31 20:22:58;;;;;;;5.50;3.80;;;;;;;12.52;78.42;99690.98;207821;1288;141292;-68
2022/12/31 20:28:01;;;;;;;7.10;3.20;;;;;;;12.56;78.53;99693.84;209337;1289;140764;-67
2022/12/31 20:33:03;;;;;;;7.60;3.50;;;;;;;12.58;78.40;99692.38;207376;1284;140833;-66
2022/12/31 20:38:05;;;;;;;5.00;3.90;;;;;;;12.64;78.04;99694.04;209789;1295;140177;-66
2022/12/31 20:43:07;;;;;;;4.80;3.60;;;;;;;12.66;78.15;99704.62;210469;1293;140494;-67
2022/12/31 20:48:10;;;;;;;4.70;3.00;;;;;;;12.67;77.92;99710.24;209061;1295;140005;-67
2022/12/31 20:53:12;;;;;;;9.00;3.80;;;;;;;12.68;78.00;99703.51;209413;1284;140814;-68
2022/12/31 20:58:15;;;;;;;5.80;3.20;;;;;;;12.68;77.69;99686.88;208876;1286;141108;-68
2022/12/31 21:03:18;;;;;;;4.50;3.60;;;;;;;12.64;77.71;99691.42;208507;1286;140093;-63
2022/12/31 21:08:40;;;;;;;5.80;3.90;;;;;;;12.63;77.59;99684.94;207489;1287;139602;-68
2022/12/31 21:13:42;;;;;;;6.00;3.30;;;;;;;12.60;77.64;99680.04;207331;1284;141120;-69
2022/12/31 21:18:45;;;;;;;5.40;3.10;;;;;;;12.54;77.62;99682.59;207831;1295;141056;-67
2022/12/31 21:23:48;;;;;;;4.90;3.00;;;;;;;12.48;77.77;99686.50;207418;1284;139609;-68
2022/12/31 21:28:52;;;;;;;7.60;4.30;;;;;;;12.49;77.71;99695.86;207431;1287;141199;-65
2022/12/31 21:33:56;;;;;;;4.60;3.50;;;;;;;12.49;77.90;99686.71;207705;1294;139698;-68
2022/12/31 21:39:00;;;;;;;4.60;3.00;;;;;;;12.44;77.81;99680.34;207509;1292;139989;-65
2022/12/31 21:44:04;;;;;;;6.60;4.00;;;;;;;12.43;77.91;99679.36;209199;1288;139888;-66
2022/12/31 21:49:07;;;;;;;7.10;3.30;;;;;;;12.46;77.69;99681.13;208463;1295;141493;-66
2022/12/31 21:56:06;;;;;;;6.10;3.60;;;;;;;12.47;77.76;99675.30;207824;1285;140116;-65
2022/12/31 22:05:17;;;;;;;5.00;3.00;;;;;;;12.39;77.59;99683.80;209947;1294;140750;-66
2022/12/31 22:10:27;;;;;;;4.60;3.30;;;;;;;12.41;77.56;99695.54;207682;1294;140156;-66
2022/12/31 22:15:30;;;;;;;6.50;3.50;;;;;;;12.41;78.00;99702.54;209066;1295;139925;-66
2022/12/31 22:20:35;;;;;;;5.30;3.50;;;;;;;12.39;77.70;99700.06;210559;1295;140418;-66
2022/12/31 22:25:38;;;;;;;6.30;4.00;;;;;;;12.42;77.48;99701.23;210489;1300;141045;-66
2022/12/31 22:30:41;;;;;;;5.80;4.20;;;;;;;12.40;77.42;99707.33;210524;1299;152947;-67
2022/12/31 22:35:55;;;;;;;3.10;2.40;;;;;;;12.42;77.30;99711.16;210384;1284;140722;-67
2022/12/31 22:41:06;;;;;;;5.30;3.30;;;;;;;12.47;77.43;99707.17;209197;1292;140229;-66
2022/12/31 22:46:19;;;;;;;6.00;3.30;;;;;;;12.48;77.35;99708.80;210277;1293;140989;-66
2022/12/31 22:51:23;;;;;;;4.40;2.90;;;;;;;12.53;77.47;99694.98;208461;1296;139698;-66
2022/12/31 22:56:26;;;;;;;4.70;2.90;;;;;;;12.56;77.42;99689.73;208043;1292;140330;-66
2022/12/31 23:01:30;;;;;;;5.70;2.70;;;;;;;12.56;77.46;99699.02;208620;1291;140998;-67
2022/12/31 23:06:42;;;;;;;4.80;3.70;;;;;;;12.55;77.34;99700.45;207571;1286;139104;-66
2022/12/31 23:11:47;;;;;;;8.30;4.30;;;;;;;12.57;77.16;99704.23;207745;1284;141633;-66
2022/12/31 23:27:57;;;;;;;4.80;4.40;;;;;;;12.50;77.15;99699.30;208794;1296;140531;-67
2022/12/31 23:33:00;;;;;;;7.10;5.40;;;;;;;12.52;77.22;99697.39;208292;1279;140790;-67
2022/12/31 23:38:04;;;;;;;5.20;3.50;;;;;;;12.48;77.05;99702.21;209781;1288;141586;-67
2022/12/31 23:43:07;;;;;;;6.40;4.30;;;;;;;12.44;77.18;99697.99;208671;1293;140550;-67
2022/12/31 23:48:10;;;;;;;4.50;3.20;;;;;;;12.45;77.02;99706.08;208537;1286;142158;-66
2022/12/31 23:53:12;;;;;;;4.80;4.30;;;;;;;12.47;77.05;99702.79;209023;1288;141337;-67
2022/12/31 23:58:15;;;;;;;6.20;3.70;;;;;;;12.45;77.20;99694.69;208151;1300;139026;-66
